Kennesaw, Georgia
Current Conditions -  °F | °C
As of 7:47 AM on Tuesday 21 Oct 2014 (Local Time) from KRYY Reporting Station
Clear Clear  
Wind Chill: 46°   Ceiling: Unl
Heat Index: 48°   Visibility: 10mi
Dew Point: 45°   Wind: 5mph
Humidity: 87%   Direction: 270°W
Pressure: 30.03"   Gusts: NA
Location:  34.02°N, 84.62°W
Report Text: KRYY 211147Z 27004KT 10SM SKC 09/07 A3003
Loading
Personal Weather Stations






























Interactive Weather Map
Tropical Storm Tracking
New forecast layout! Learn more

10-Day Weather Forecast

Advertisements
Track Severe Weather on mobile